Time;durP1;ratioP1;P1;durP2;ratioP2;P2;SDS_P1;SDS_P2;PMS_P1;PMS_P2;Temp;Humidity;BMP_temperature;BMP_pressure;BME280_temperature;BME280_humidity;BME280_pressure;Samples;Min_cycle;Max_cycle;Signal;HPM_P1;HPM_P2
2023/02/03 00:01:03;;;;;;;16.33;13.50;;;10.70;99.90;;;;;;5033298;28;20190;-80
2023/02/03 00:03:29;;;;;;;18.60;14.20;;;10.80;99.90;;;;;;5044310;28;20616;-81
2023/02/03 00:05:55;;;;;;;16.40;13.90;;;10.70;99.90;;;;;;5039423;28;20457;-80
2023/02/03 00:08:22;;;;;;;19.97;14.60;;;10.70;99.90;;;;;;5044803;28;20205;-80
2023/02/03 00:10:48;;;;;;;15.40;12.83;;;10.70;99.90;;;;;;5045115;28;20782;-80
2023/02/03 00:13:14;;;;;;;15.83;13.70;;;10.70;99.90;;;;;;5049104;28;20435;-80
2023/02/03 00:15:40;;;;;;;16.23;14.57;;;10.70;99.90;;;;;;5034683;28;20551;-80
2023/02/03 00:18:05;;;;;;;18.47;13.87;;;10.70;99.90;;;;;;5035519;28;20930;-80
2023/02/03 00:20:31;;;;;;;16.20;12.80;;;10.70;99.90;;;;;;5053514;28;20177;-80
2023/02/03 00:23:15;;;;;;;15.67;13.37;;;10.70;99.90;;;;;;5015347;28;20178;-79
2023/02/03 00:25:41;;;;;;;14.50;12.50;;;10.80;99.90;;;;;;5032216;28;20442;-74
2023/02/03 00:28:07;;;;;;;16.47;12.80;;;10.80;99.90;;;;;;5050890;28;20466;-80
2023/02/03 00:30:36;;;;;;;14.60;13.07;;;10.80;99.90;;;;;;5021984;28;20190;-80
2023/02/03 00:33:02;;;;;;;14.77;12.03;;;10.90;99.90;;;;;;5039818;28;20537;-79
2023/02/03 00:35:28;;;;;;;14.03;12.60;;;10.80;99.90;;;;;;5037077;28;20432;-79
2023/02/03 00:37:55;;;;;;;13.70;12.40;;;10.80;99.90;;;;;;5048648;28;20435;-79
2023/02/03 00:40:23;;;;;;;16.77;11.60;;;10.80;99.90;;;;;;5027501;28;20471;-79
2023/02/03 00:42:49;;;;;;;15.63;12.40;;;10.90;99.90;;;;;;5068419;28;20441;-75
2023/02/03 00:45:15;;;;;;;12.67;11.47;;;10.90;99.90;;;;;;5053052;28;20832;-79
2023/02/03 00:47:41;;;;;;;12.77;11.33;;;10.90;99.90;;;;;;5051343;28;20208;-79
2023/02/03 00:50:07;;;;;;;13.43;12.00;;;10.90;99.90;;;;;;5057608;28;20435;-79
2023/02/03 00:52:33;;;;;;;15.63;12.10;;;10.90;99.90;;;;;;5066046;28;20196;-79
2023/02/03 00:54:59;;;;;;;14.43;12.33;;;10.80;99.90;;;;;;5070664;28;20530;-79
2023/02/03 00:57:24;;;;;;;17.37;12.50;;;10.80;99.90;;;;;;5068323;28;20177;-79
2023/02/03 00:59:50;;;;;;;13.70;11.70;;;10.90;99.90;;;;;;5051908;28;20179;-80
2023/02/03 01:02:16;;;;;;;14.80;11.60;;;10.90;99.90;;;;;;5052401;28;20536;-80
2023/02/03 01:04:45;;;;;;;15.03;12.47;;;10.90;99.90;;;;;;5052133;28;20191;-80
2023/02/03 01:07:10;;;;;;;13.50;12.10;;;10.90;99.90;;;;;;5051752;28;20187;-79
2023/02/03 01:09:39;;;;;;;14.67;11.63;;;10.90;99.90;;;;;;5052877;28;20487;-79
2023/02/03 01:12:05;;;;;;;12.70;11.33;;;11.00;99.90;;;;;;5065408;28;20187;-79
2023/02/03 01:14:30;;;;;;;14.73;12.27;;;11.00;99.90;;;;;;5057911;28;20434;-80
2023/02/03 01:16:57;;;;;;;15.07;11.17;;;10.90;99.90;;;;;;5062596;28;20488;-79
2023/02/03 01:19:23;;;;;;;14.57;11.10;;;10.90;99.90;;;;;;5064125;28;20627;-81
2023/02/03 01:21:48;;;;;;;14.13;11.77;;;10.90;99.90;;;;;;5058928;28;20523;-81
2023/02/03 01:24:14;;;;;;;13.07;10.70;;;11.00;99.90;;;;;;5050006;28;20186;-81
2023/02/03 01:26:40;;;;;;;15.63;10.93;;;10.90;99.90;;;;;;5052368;28;20188;-81
2023/02/03 01:29:07;;;;;;;12.43;11.17;;;10.90;99.90;;;;;;5058005;28;20197;-80
2023/02/03 01:31:35;;;;;;;15.90;11.53;;;10.80;99.90;;;;;;5064068;28;20419;-78
2023/02/03 01:34:02;;;;;;;13.40;11.87;;;10.90;99.90;;;;;;5066681;28;20825;-79
2023/02/03 01:36:30;;;;;;;16.00;11.90;;;10.90;99.90;;;;;;5058613;28;20432;-78
2023/02/03 01:38:56;;;;;;;15.90;11.83;;;10.90;99.90;;;;;;5063425;28;20485;-80
2023/02/03 01:41:24;;;;;;;15.30;12.27;;;10.90;99.90;;;;;;5058787;28;20489;-79
2023/02/03 01:43:53;;;;;;;15.10;12.27;;;10.90;99.90;;;;;;5050326;28;20588;-79
2023/02/03 01:46:38;;;;;;;17.13;12.73;;;10.80;99.90;;;;;;5050368;28;20427;-79
2023/02/03 01:49:15;;;;;;;13.50;11.50;;;10.90;99.90;;;;;;5027623;28;20480;-80
2023/02/03 01:51:43;;;;;;;13.10;11.70;;;10.70;99.90;;;;;;5037442;28;20798;-80
2023/02/03 01:54:14;;;;;;;13.50;11.13;;;10.70;99.90;;;;;;5033806;28;20783;-79
2023/02/03 01:56:44;;;;;;;15.40;11.73;;;10.80;99.90;;;;;;5034369;28;20428;-80
2023/02/03 01:59:10;;;;;;;12.57;11.37;;;10.70;99.90;;;;;;5013908;28;20443;-79
2023/02/03 02:01:36;;;;;;;15.07;12.23;;;10.80;99.90;;;;;;5035642;28;20441;-79
2023/02/03 02:04:04;;;;;;;14.20;11.60;;;10.80;99.90;;;;;;5019204;28;20441;-80
2023/02/03 02:06:30;;;;;;;13.67;10.43;;;10.90;99.90;;;;;;5038067;28;20432;-79
2023/02/03 02:08:59;;;;;;;16.73;11.00;;;10.90;99.90;;;;;;5046479;28;20468;-80
2023/02/03 02:11:26;;;;;;;12.60;11.10;;;10.90;99.90;;;;;;5046309;28;20185;-80
2023/02/03 02:13:56;;;;;;;11.90;10.80;;;11.00;99.90;;;;;;5038952;28;20447;-79
2023/02/03 02:16:32;;;;;;;13.53;10.93;;;11.00;99.90;;;;;;5041176;28;20435;-79
2023/02/03 02:19:40;;;;;;;15.27;11.13;;;10.90;99.90;;;;;;5047549;28;20838;-80
2023/02/03 02:22:44;;;;;;;13.83;10.83;;;10.90;99.90;;;;;;5037748;28;20796;-80
2023/02/03 02:25:31;;;;;;;13.73;10.80;;;10.90;99.90;;;;;;5047634;28;20471;-80
2023/02/03 02:28:30;;;;;;;12.83;10.50;;;10.90;99.90;;;;;;5053654;28;20471;-80
2023/02/03 02:31:33;;;;;;;11.77;10.07;;;10.90;99.90;;;;;;5035798;28;20435;-79
2023/02/03 02:34:21;;;;;;;15.40;9.70;;;10.90;99.90;;;;;;5034521;28;20433;-79
2023/02/03 02:37:02;;;;;;;11.60;9.93;;;10.90;99.90;;;;;;5037591;28;20489;-80
2023/02/03 02:40:15;;;;;;;14.17;10.60;;;10.90;99.90;;;;;;5048672;28;20436;-79
2023/02/03 02:43:12;;;;;;;15.47;10.63;;;10.90;99.90;;;;;;4981191;28;20812;-78
2023/02/03 02:45:47;;;;;;;12.07;9.80;;;10.80;99.90;;;;;;5035012;28;20491;-79
2023/02/03 02:48:45;;;;;;;11.67;10.47;;;10.90;99.90;;;;;;5059144;28;20472;-79
2023/02/03 02:51:14;;;;;;;13.60;11.17;;;10.80;99.90;;;;;;5066105;28;20430;-79
2023/02/03 02:53:49;;;;;;;13.20;11.80;;;10.80;99.90;;;;;;5074679;28;20422;-79
2023/02/03 02:56:17;;;;;;;12.30;11.03;;;10.90;99.90;;;;;;5056117;28;20486;-79
2023/02/03 02:58:47;;;;;;;12.83;10.90;;;10.80;99.90;;;;;;5074726;28;20466;-80
2023/02/03 03:01:14;;;;;;;14.60;11.70;;;10.70;99.90;;;;;;5074142;28;20443;-79
2023/02/03 03:03:43;;;;;;;13.87;11.57;;;10.80;99.90;;;;;;5074711;28;20414;-79
2023/02/03 03:06:17;;;;;;;11.73;10.50;;;10.80;99.90;;;;;;5073638;28;20411;-79
2023/02/03 03:09:07;;;;;;;13.73;11.30;;;10.80;99.90;;;;;;5060231;28;20928;-80
2023/02/03 03:11:37;;;;;;;12.53;11.20;;;10.80;99.90;;;;;;5046923;28;20450;-79
2023/02/03 03:14:05;;;;;;;13.30;11.90;;;10.90;99.90;;;;;;5034728;28;20444;-79
2023/02/03 03:16:33;;;;;;;13.63;11.97;;;10.90;99.90;;;;;;5044095;28;20434;-80
2023/02/03 03:19:17;;;;;;;12.90;10.80;;;10.90;99.90;;;;;;5073730;28;20556;-74
2023/02/03 03:21:48;;;;;;;14.63;11.70;;;10.90;99.90;;;;;;5061409;28;20434;-80
2023/02/03 03:24:22;;;;;;;12.90;11.40;;;11.00;99.90;;;;;;5052467;28;20439;-80
2023/02/03 03:27:07;;;;;;;13.60;10.50;;;10.90;99.90;;;;;;5017983;28;20434;-81
2023/02/03 03:29:38;;;;;;;12.97;11.57;;;10.90;99.90;;;;;;5053420;28;20789;-80
2023/02/03 03:32:04;;;;;;;11.83;10.73;;;10.90;99.90;;;;;;5044409;28;20437;-80
2023/02/03 03:34:31;;;;;;;11.40;10.30;;;11.00;99.90;;;;;;5047675;28;20521;-80
2023/02/03 03:37:10;;;;;;;12.30;10.50;;;10.90;99.90;;;;;;5049069;28;20574;-80
2023/02/03 03:40:00;;;;;;;11.63;9.40;;;11.00;99.90;;;;;;5035338;28;20425;-78
2023/02/03 03:42:31;;;;;;;10.40;9.30;;;11.10;99.90;;;;;;5024135;28;20462;-78
2023/02/03 03:45:00;;;;;;;10.40;9.27;;;10.90;99.90;;;;;;5052328;28;20446;-78
2023/02/03 03:47:46;;;;;;;12.17;9.10;;;11.00;99.90;;;;;;5045498;28;20519;-77
2023/02/03 03:50:21;;;;;;;10.73;8.60;;;10.90;99.90;;;;;;5052760;28;20436;-77
2023/02/03 03:52:50;;;;;;;10.63;8.77;;;10.90;99.90;;;;;;5052728;28;20438;-77
2023/02/03 03:55:18;;;;;;;11.77;8.00;;;10.90;99.90;;;;;;5035880;28;20521;-78
2023/02/03 03:57:59;;;;;;;8.20;7.50;;;10.90;99.90;;;;;;5029233;28;20796;-79
2023/02/03 04:00:29;;;;;;;8.30;7.47;;;10.90;99.90;;;;;;5049658;28;20456;-79
2023/02/03 04:02:59;;;;;;;9.80;7.90;;;10.90;99.90;;;;;;5040767;28;20468;-79
2023/02/03 04:05:26;;;;;;;9.10;7.80;;;10.90;99.90;;;;;;5052832;28;20435;-79
2023/02/03 04:07:52;;;;;;;8.67;7.73;;;10.90;99.90;;;;;;5049351;28;20522;-79
2023/02/03 04:10:28;;;;;;;9.73;7.97;;;11.00;99.90;;;;;;5050722;28;20519;-78
2023/02/03 04:12:54;;;;;;;12.03;9.03;;;10.90;99.90;;;;;;5051360;28;20271;-78
2023/02/03 04:15:19;;;;;;;8.17;7.47;;;10.90;99.90;;;;;;5051602;28;20551;-77
2023/02/03 04:17:47;;;;;;;9.30;8.40;;;11.00;99.90;;;;;;5048272;28;20183;-78
2023/02/03 04:20:13;;;;;;;8.83;7.93;;;10.90;99.90;;;;;;5034295;28;20648;-78
2023/02/03 04:22:39;;;;;;;8.90;8.20;;;11.00;99.90;;;;;;5052325;28;20429;-77
2023/02/03 04:25:05;;;;;;;9.67;8.77;;;11.00;99.90;;;;;;5051216;28;20780;-76
2023/02/03 04:27:31;;;;;;;9.00;8.00;;;10.90;99.90;;;;;;5051944;28;20221;-78
2023/02/03 04:29:57;;;;;;;8.77;7.90;;;10.90;99.90;;;;;;5032541;28;20808;-78
2023/02/03 04:32:23;;;;;;;9.27;8.37;;;10.80;99.90;;;;;;5046181;28;20434;-78
2023/02/03 04:34:48;;;;;;;9.03;8.20;;;10.80;99.90;;;;;;5044518;28;20230;-78
2023/02/03 04:37:14;;;;;;;9.37;8.57;;;10.90;99.90;;;;;;5019392;28;20185;-78
2023/02/03 04:39:40;;;;;;;11.40;10.47;;;10.80;99.90;;;;;;5027625;28;20272;-78
2023/02/03 04:42:05;;;;;;;11.37;10.30;;;10.80;99.90;;;;;;5062824;28;20230;-73
2023/02/03 04:44:31;;;;;;;10.00;9.10;;;10.80;99.90;;;;;;5085259;28;20167;-78
2023/02/03 04:46:57;;;;;;;12.13;11.23;;;10.80;99.90;;;;;;5079780;28;20202;-78
2023/02/03 04:49:23;;;;;;;9.10;8.10;;;10.80;99.90;;;;;;5067311;28;20361;-78
2023/02/03 04:51:49;;;;;;;10.43;9.33;;;10.70;99.90;;;;;;5071371;28;20181;-79
2023/02/03 04:54:14;;;;;;;10.40;9.00;;;10.70;99.90;;;;;;5069947;28;20175;-79
2023/02/03 04:56:40;;;;;;;11.17;8.23;;;10.80;99.90;;;;;;5060248;28;20428;-78
2023/02/03 04:59:06;;;;;;;11.23;10.23;;;10.80;99.90;;;;;;5066417;28;20187;-78
2023/02/03 05:01:32;;;;;;;9.40;8.40;;;10.80;99.90;;;;;;5063915;28;20434;-78
2023/02/03 05:03:58;;;;;;;9.90;7.47;;;10.70;99.90;;;;;;5070093;28;20416;-79
2023/02/03 05:06:25;;;;;;;10.00;8.20;;;10.80;99.90;;;;;;5057133;28;20881;-78
2023/02/03 05:08:52;;;;;;;10.13;8.43;;;10.80;99.90;;;;;;5053791;28;20215;-79
2023/02/03 05:11:18;;;;;;;8.50;7.63;;;10.80;99.90;;;;;;5062255;28;20451;-78
2023/02/03 05:13:43;;;;;;;11.90;11.00;;;10.70;99.90;;;;;;5072430;28;20412;-79
2023/02/03 05:16:09;;;;;;;11.23;10.33;;;10.70;99.90;;;;;;5070506;28;20245;-78
2023/02/03 05:18:35;;;;;;;10.03;9.03;;;10.70;99.90;;;;;;5059218;28;20187;-78
2023/02/03 05:21:00;;;;;;;11.07;10.07;;;10.70;99.90;;;;;;5056247;28;20191;-78
2023/02/03 05:23:26;;;;;;;10.63;8.83;;;10.70;99.90;;;;;;5067794;28;20260;-78
2023/02/03 05:25:52;;;;;;;12.70;10.00;;;10.70;99.90;;;;;;5071074;28;20185;-79
2023/02/03 05:28:18;;;;;;;9.63;8.23;;;10.70;99.90;;;;;;5063981;28;20203;-79
2023/02/03 05:30:43;;;;;;;8.47;7.50;;;10.80;99.90;;;;;;5051892;28;20246;-78
2023/02/03 05:33:09;;;;;;;9.03;8.23;;;10.80;99.90;;;;;;5053455;28;20595;-78
2023/02/03 05:35:35;;;;;;;9.20;8.30;;;10.80;99.90;;;;;;5062963;28;20236;-79
2023/02/03 05:38:01;;;;;;;8.77;7.00;;;10.90;99.90;;;;;;5068844;28;20632;-79
2023/02/03 05:43:11;;;;;;;8.40;7.40;;;10.80;99.90;;;;;;5040749;28;20185;-78
2023/02/03 05:45:36;;;;;;;8.20;7.40;;;10.80;99.90;;;;;;5055708;28;20552;-79
2023/02/03 05:48:02;;;;;;;8.17;7.17;;;10.80;99.90;;;;;;5026550;28;20212;-78
2023/02/03 05:50:32;;;;;;;8.10;7.30;;;10.80;99.90;;;;;;5053109;28;20647;-79
2023/02/03 05:52:59;;;;;;;10.63;7.73;;;10.80;99.90;;;;;;5055279;28;20509;-77
2023/02/03 05:55:25;;;;;;;16.63;7.50;;;10.80;99.90;;;;;;5036370;28;20437;-79
2023/02/03 05:57:51;;;;;;;7.90;7.20;;;10.80;99.90;;;;;;5035168;28;20519;-78
2023/02/03 06:00:17;;;;;;;7.27;6.67;;;10.70;99.90;;;;;;5017947;28;20523;-78
2023/02/03 06:02:42;;;;;;;11.17;10.27;;;10.80;99.90;;;;;;5029893;28;20189;-77
2023/02/03 06:05:08;;;;;;;10.53;9.47;;;10.70;99.90;;;;;;5051014;28;20435;-73
2023/02/03 06:07:34;;;;;;;9.90;7.60;;;10.70;99.90;;;;;;5039410;28;20190;-78
2023/02/03 06:10:00;;;;;;;8.77;7.97;;;10.80;99.90;;;;;;5035241;28;20731;-77
2023/02/03 06:12:26;;;;;;;8.30;6.37;;;10.80;99.90;;;;;;5035815;28;20424;-77
2023/02/03 06:14:51;;;;;;;10.40;9.40;;;10.70;99.90;;;;;;5035329;28;20174;-77
2023/02/03 06:17:17;;;;;;;6.30;5.67;;;10.80;99.90;;;;;;5034570;28;20236;-77
2023/02/03 06:19:42;;;;;;;8.37;7.60;;;10.80;99.90;;;;;;5035243;28;20216;-77
2023/02/03 06:22:08;;;;;;;9.57;6.27;;;10.80;99.90;;;;;;5040839;28;20243;-72
2023/02/03 06:24:34;;;;;;;7.13;6.43;;;10.80;99.90;;;;;;5054915;28;20181;-78
2023/02/03 06:26:59;;;;;;;8.77;7.87;;;10.80;99.90;;;;;;5055365;28;20181;-77
2023/02/03 06:29:25;;;;;;;7.40;6.70;;;10.80;99.90;;;;;;5054125;28;20213;-77
2023/02/03 06:31:51;;;;;;;8.13;7.33;;;10.80;99.90;;;;;;5041080;28;20175;-77
2023/02/03 06:34:16;;;;;;;9.03;8.40;;;10.80;99.90;;;;;;5028532;28;20185;-77
2023/02/03 06:36:42;;;;;;;7.80;5.40;;;10.90;99.90;;;;;;5037981;28;20268;-71
2023/02/03 06:39:08;;;;;;;10.67;5.67;;;10.90;99.90;;;;;;5046537;28;20626;-74
2023/02/03 06:41:34;;;;;;;10.90;7.70;;;10.90;99.90;;;;;;5049057;28;20242;-75
2023/02/03 06:44:00;;;;;;;5.40;4.90;;;10.80;99.90;;;;;;5056447;28;20424;-75
2023/02/03 06:46:28;;;;;;;8.97;8.20;;;10.90;99.90;;;;;;5053171;28;20551;-74
2023/02/03 06:48:54;;;;;;;6.80;5.23;;;10.80;99.90;;;;;;5060043;28;20205;-75
2023/02/03 06:51:20;;;;;;;6.93;6.33;;;10.80;99.90;;;;;;5066505;28;20438;-75
2023/02/03 06:53:46;;;;;;;7.03;5.40;;;10.80;99.90;;;;;;5065084;28;20201;-75
2023/02/03 06:56:11;;;;;;;6.63;5.40;;;10.80;99.90;;;;;;5070379;28;20183;-74
2023/02/03 06:58:37;;;;;;;6.63;5.13;;;10.90;99.90;;;;;;5066242;28;20210;-75
2023/02/03 07:01:03;;;;;;;8.97;5.70;;;10.80;99.90;;;;;;5054540;28;20174;-75
2023/02/03 07:03:28;;;;;;;5.83;4.70;;;10.70;99.90;;;;;;5055770;28;20910;-74
2023/02/03 07:05:54;;;;;;;12.97;6.80;;;10.80;99.90;;;;;;5055531;28;20625;-74
2023/02/03 07:08:20;;;;;;;5.23;4.70;;;10.80;99.90;;;;;;5055908;28;20224;-75
2023/02/03 07:10:45;;;;;;;4.83;4.43;;;10.80;99.90;;;;;;5058422;28;20207;-74
2023/02/03 07:13:11;;;;;;;7.07;4.57;;;10.80;99.90;;;;;;5061273;28;20180;-74
2023/02/03 07:15:37;;;;;;;5.90;5.20;;;10.80;99.90;;;;;;5068436;28;20593;-75
2023/02/03 07:18:03;;;;;;;7.23;5.40;;;10.70;99.90;;;;;;5067293;28;20220;-74
2023/02/03 07:20:28;;;;;;;8.97;8.20;;;10.60;99.90;;;;;;5061195;28;20178;-74
2023/02/03 07:22:56;;;;;;;9.53;7.10;;;10.70;99.90;;;;;;5056562;28;20427;-75
2023/02/03 07:25:22;;;;;;;6.00;5.60;;;10.70;99.90;;;;;;5052606;28;20644;-75
2023/02/03 07:27:48;;;;;;;7.13;6.43;;;10.70;99.90;;;;;;5059684;28;20468;-76
2023/02/03 07:30:14;;;;;;;7.57;6.83;;;10.70;99.90;;;;;;5055475;28;20463;-74
2023/02/03 07:32:40;;;;;;;7.50;6.90;;;10.70;99.90;;;;;;5054956;28;20823;-75
2023/02/03 07:35:07;;;;;;;10.40;6.70;;;10.70;99.90;;;;;;5054190;28;20441;-75
2023/02/03 07:37:33;;;;;;;7.00;6.40;;;10.70;99.90;;;;;;5052967;28;20170;-75
2023/02/03 07:39:58;;;;;;;7.30;6.60;;;10.90;99.90;;;;;;5051949;28;20513;-75
2023/02/03 07:42:24;;;;;;;12.00;7.20;;;10.70;99.90;;;;;;5036246;28;20235;-75
2023/02/03 07:44:50;;;;;;;8.10;7.43;;;10.80;99.90;;;;;;5039846;28;20197;-75
2023/02/03 07:47:15;;;;;;;7.57;6.87;;;10.80;99.90;;;;;;5038166;28;20171;-74
2023/02/03 07:49:41;;;;;;;8.13;6.83;;;10.70;99.90;;;;;;5047027;28;20211;-75
2023/02/03 07:52:07;;;;;;;7.13;6.40;;;10.70;99.90;;;;;;5042064;28;20190;-75
2023/02/03 07:54:33;;;;;;;9.83;7.23;;;10.80;99.90;;;;;;5051769;28;20510;-75
2023/02/03 07:56:58;;;;;;;6.77;6.27;;;10.80;99.90;;;;;;5039765;28;20193;-75
2023/02/03 07:59:24;;;;;;;9.70;7.63;;;10.80;99.90;;;;;;5031396;28;20705;-74
2023/02/03 08:01:50;;;;;;;7.60;7.00;;;10.70;99.90;;;;;;5037527;28;20185;-74
2023/02/03 08:04:16;;;;;;;7.10;6.40;;;10.70;99.90;;;;;;5042054;28;20172;-73
2023/02/03 08:06:42;;;;;;;8.23;7.10;;;10.70;99.90;;;;;;5045512;28;20243;-74
2023/02/03 08:09:08;;;;;;;9.43;7.00;;;10.70;99.90;;;;;;5034230;28;20523;-75
2023/02/03 08:11:34;;;;;;;6.90;6.30;;;10.70;99.90;;;;;;5016527;28;21045;-72
2023/02/03 08:13:59;;;;;;;7.07;6.47;;;10.80;99.90;;;;;;5044015;28;20201;-72
2023/02/03 08:16:25;;;;;;;9.57;7.00;;;10.70;99.90;;;;;;5033689;28;20189;-71
2023/02/03 08:18:51;;;;;;;7.87;7.17;;;10.70;99.90;;;;;;5022868;28;20184;-74
2023/02/03 08:21:16;;;;;;;9.70;7.50;;;11.10;99.90;;;;;;5039720;28;20172;-75
2023/02/03 08:23:42;;;;;;;8.07;6.90;;;11.40;99.90;;;;;;5046569;28;20181;-76
2023/02/03 08:26:08;;;;;;;7.43;6.80;;;11.90;99.90;;;;;;5053109;28;20181;-75
2023/02/03 08:28:34;;;;;;;8.07;7.13;;;12.30;99.90;;;;;;5050548;28;20481;-75
2023/02/03 08:30:59;;;;;;;9.23;7.57;;;12.60;99.90;;;;;;5021199;28;20273;-75
2023/02/03 08:33:26;;;;;;;7.83;7.13;;;13.00;99.90;;;;;;5011176;28;20177;-73
2023/02/03 08:35:52;;;;;;;8.27;7.40;;;13.20;99.90;;;;;;5032777;28;20321;-75
2023/02/03 08:38:18;;;;;;;9.60;8.90;;;13.40;99.90;;;;;;5047340;28;20515;-75
2023/02/03 08:40:44;;;;;;;8.77;8.10;;;13.60;99.90;;;;;;5032354;28;20349;-75
2023/02/03 08:43:10;;;;;;;8.30;7.60;;;13.60;99.90;;;;;;5015009;28;20223;-75
2023/02/03 08:45:35;;;;;;;8.73;7.93;;;13.80;99.90;;;;;;5031764;28;20195;-75
2023/02/03 08:48:01;;;;;;;9.23;8.30;;;14.10;99.90;;;;;;5044786;28;20434;-76
2023/02/03 08:50:27;;;;;;;9.30;8.37;;;14.20;99.90;;;;;;5051121;28;20200;-75
2023/02/03 08:52:52;;;;;;;9.10;8.30;;;14.20;99.90;;;;;;5035287;28;20181;-76
2023/02/03 08:55:18;;;;;;;8.50;7.77;;;14.40;99.90;;;;;;5031421;28;20229;-75
2023/02/03 08:57:44;;;;;;;7.77;6.97;;;14.40;99.90;;;;;;5018542;28;20248;-75
2023/02/03 09:00:11;;;;;;;8.70;8.00;;;14.50;99.90;;;;;;5032179;28;20174;-76
2023/02/03 09:02:37;;;;;;;7.93;7.43;;;14.70;99.90;;;;;;5031029;28;20433;-76
2023/02/03 09:05:03;;;;;;;7.57;6.97;;;14.80;99.90;;;;;;5045453;28;20425;-75
2023/02/03 09:07:28;;;;;;;7.67;7.07;;;14.80;99.90;;;;;;5014684;28;20650;-75
2023/02/03 09:09:54;;;;;;;8.13;7.00;;;14.90;99.90;;;;;;5031986;28;20492;-75
2023/02/03 09:12:20;;;;;;;9.27;8.57;;;14.90;99.90;;;;;;5031737;28;20178;-75
2023/02/03 09:14:45;;;;;;;8.03;7.33;;;14.90;99.90;;;;;;5032165;28;20268;-75
2023/02/03 09:17:11;;;;;;;7.30;6.70;;;14.70;99.90;;;;;;5033622;28;20185;-75
2023/02/03 09:19:37;;;;;;;9.63;8.70;;;14.60;99.90;;;;;;5037671;28;20555;-75
2023/02/03 09:22:03;;;;;;;7.77;7.17;;;14.60;99.90;;;;;;5035556;28;20193;-75
2023/02/03 09:24:29;;;;;;;8.97;8.27;;;14.50;99.90;;;;;;5038298;28;20273;-75
2023/02/03 09:26:56;;;;;;;7.70;7.10;;;14.50;99.90;;;;;;5031713;28;20572;-75
2023/02/03 09:29:22;;;;;;;7.90;7.20;;;14.70;99.90;;;;;;5031284;28;20471;-74
2023/02/03 09:31:53;;;;;;;7.60;7.00;;;14.60;99.90;;;;;;5025985;28;20440;-74
2023/02/03 09:34:20;;;;;;;7.17;6.57;;;14.70;99.90;;;;;;5031410;28;20437;-74
2023/02/03 09:36:46;;;;;;;8.50;7.80;;;14.70;99.90;;;;;;5031380;28;20425;-75
2023/02/03 09:39:12;;;;;;;8.27;7.57;;;14.70;99.90;;;;;;5031369;28;20433;-75
2023/02/03 09:41:43;;;;;;;8.13;7.30;;;14.70;99.90;;;;;;5041795;28;20477;-74
2023/02/03 09:44:27;;;;;;;9.07;8.20;;;14.70;99.90;;;;;;5033335;28;20268;-72
2023/02/03 09:46:57;;;;;;;10.13;9.23;;;14.20;99.90;;;;;;5033562;28;20775;-72
2023/02/03 09:49:41;;;;;;;12.10;10.70;;;13.70;99.90;;;;;;5045094;28;20454;-72
2023/02/03 09:52:21;;;;;;;13.33;9.50;;;13.30;99.90;;;;;;5051625;28;20427;-72
2023/02/03 09:55:22;;;;;;;11.60;10.50;;;12.80;99.90;;;;;;5032181;28;20422;-72
2023/02/03 09:57:55;;;;;;;11.57;10.47;;;12.50;99.90;;;;;;5032159;28;20400;-72
2023/02/03 10:00:40;;;;;;;10.87;9.87;;;12.20;99.90;;;;;;5048202;28;20416;-72
2023/02/03 10:03:35;;;;;;;15.37;10.60;;;12.00;99.90;;;;;;5034093;28;20408;-72
2023/02/03 10:06:20;;;;;;;12.43;10.80;;;11.70;99.90;;;;;;5030459;28;20428;-72
2023/02/03 10:08:48;;;;;;;14.50;11.63;;;11.50;99.90;;;;;;5036709;28;20550;-73
2023/02/03 10:11:43;;;;;;;10.70;9.60;;;11.40;99.90;;;;;;5031850;28;20502;-72
2023/02/03 10:14:12;;;;;;;11.23;9.80;;;11.30;99.90;;;;;;5015593;28;20541;-72
2023/02/03 10:16:52;;;;;;;11.60;10.50;;;11.30;99.90;;;;;;5011929;28;20436;-72
2023/02/03 10:19:27;;;;;;;12.20;10.97;;;11.30;99.90;;;;;;5046854;28;20435;-71
2023/02/03 10:21:57;;;;;;;12.67;10.43;;;11.20;99.90;;;;;;5009264;28;20935;-73
2023/02/03 10:24:38;;;;;;;14.27;11.77;;;11.20;99.90;;;;;;5024334;28;20415;-71
2023/02/03 10:27:04;;;;;;;10.97;9.60;;;11.10;99.90;;;;;;5017561;28;20494;-72
2023/02/03 10:29:41;;;;;;;13.63;10.30;;;11.10;99.90;;;;;;5036563;28;20545;-72
2023/02/03 10:32:11;;;;;;;12.13;10.33;;;11.00;99.90;;;;;;5045146;28;20424;-71
2023/02/03 10:34:37;;;;;;;13.87;10.33;;;11.10;99.90;;;;;;5054449;28;20411;-72
2023/02/03 10:37:22;;;;;;;12.47;11.27;;;11.00;99.90;;;;;;5039219;28;20508;-72
2023/02/03 10:39:50;;;;;;;13.60;11.13;;;11.00;99.90;;;;;;5035226;28;20420;-72
2023/02/03 10:42:17;;;;;;;12.00;10.90;;;10.90;99.90;;;;;;5035111;28;20504;-72
2023/02/03 10:44:55;;;;;;;13.13;11.83;;;11.00;99.90;;;;;;5034470;28;20416;-72
2023/02/03 10:47:26;;;;;;;13.83;11.27;;;11.00;99.90;;;;;;5045887;28;20429;-72
2023/02/03 10:49:54;;;;;;;13.27;11.83;;;11.00;99.90;;;;;;5017287;28;20456;-71
2023/02/03 10:52:32;;;;;;;14.23;12.80;;;10.90;99.90;;;;;;5034947;28;20416;-71
2023/02/03 10:55:03;;;;;;;12.80;11.20;;;10.90;99.90;;;;;;5017858;28;20986;-72
2023/02/03 10:57:29;;;;;;;13.30;11.97;;;10.90;99.90;;;;;;5034632;28;20732;-75
2023/02/03 11:00:15;;;;;;;15.23;12.10;;;10.90;99.90;;;;;;5034972;28;20414;-73
2023/02/03 11:02:41;;;;;;;13.60;12.30;;;10.80;99.90;;;;;;5020257;28;20594;-71
2023/02/03 11:05:16;;;;;;;13.17;11.97;;;10.80;99.90;;;;;;5034838;28;20494;-72
2023/02/03 11:07:42;;;;;;;13.17;11.70;;;10.90;99.90;;;;;;5015558;28;20736;-72
2023/02/03 11:10:34;;;;;;;13.10;11.80;;;10.90;99.90;;;;;;5034652;28;20680;-72
2023/02/03 11:13:20;;;;;;;12.73;11.33;;;10.90;99.90;;;;;;5036435;28;20462;-71
2023/02/03 11:15:46;;;;;;;14.87;13.00;;;10.90;99.90;;;;;;5046866;28;20431;-71
2023/02/03 11:18:34;;;;;;;15.20;13.60;;;11.00;99.90;;;;;;5036813;28;20483;-71
2023/02/03 11:21:05;;;;;;;17.70;13.20;;;10.80;99.90;;;;;;5045531;28;20184;-71
2023/02/03 11:23:30;;;;;;;14.23;12.73;;;10.90;99.90;;;;;;5033211;28;20399;-72
2023/02/03 11:25:56;;;;;;;13.57;12.23;;;10.90;99.90;;;;;;5033738;28;20473;-72
2023/02/03 11:28:26;;;;;;;16.10;12.87;;;10.80;99.90;;;;;;5033774;28;20960;-72
2023/02/03 11:30:56;;;;;;;15.90;13.87;;;10.90;99.90;;;;;;5034453;28;20638;-72
2023/02/03 11:33:26;;;;;;;14.13;12.73;;;11.00;99.90;;;;;;5036301;28;20431;-72
2023/02/03 11:35:58;;;;;;;15.67;13.37;;;10.90;99.90;;;;;;5033426;28;20409;-72
2023/02/03 11:38:35;;;;;;;14.87;13.37;;;11.00;99.90;;;;;;5032518;28;20456;-73
2023/02/03 11:41:01;;;;;;;16.73;13.07;;;11.00;99.90;;;;;;5050691;28;20553;-72
2023/02/03 11:43:28;;;;;;;15.33;13.63;;;11.00;99.90;;;;;;5071554;28;20445;-73
2023/02/03 11:46:00;;;;;;;19.13;15.10;;;10.90;99.90;;;;;;5068549;28;20766;-72
2023/02/03 11:48:34;;;;;;;13.93;12.50;;;10.90;99.90;;;;;;5055044;28;20459;-73
2023/02/03 11:51:17;;;;;;;14.50;12.30;;;10.90;99.90;;;;;;5053895;28;20489;-72
2023/02/03 11:53:43;;;;;;;16.90;15.10;;;11.00;99.90;;;;;;5055893;28;20441;-73
2023/02/03 11:56:30;;;;;;;15.70;13.10;;;10.90;99.90;;;;;;5071627;28;20434;-73
2023/02/03 11:59:06;;;;;;;13.57;12.40;;;10.90;99.90;;;;;;5073767;28;20175;-72
2023/02/03 12:01:50;;;;;;;19.30;13.70;;;10.90;99.90;;;;;;5072312;28;20502;-74
2023/02/03 12:04:34;;;;;;;14.20;11.80;;;10.90;99.90;;;;;;5072219;28;20501;-73
2023/02/03 12:07:32;;;;;;;13.93;12.50;;;10.90;99.90;;;;;;5073618;28;20413;-72
2023/02/03 12:10:16;;;;;;;11.90;10.77;;;11.00;99.90;;;;;;5072055;28;20457;-73
2023/02/03 12:12:47;;;;;;;13.50;12.20;;;10.90;99.90;;;;;;5052384;28;20943;-73
2023/02/03 12:15:24;;;;;;;12.50;11.30;;;11.00;99.90;;;;;;5053372;28;20404;-73
2023/02/03 12:18:04;;;;;;;11.50;10.40;;;11.00;99.90;;;;;;5051979;28;20998;-74
2023/02/03 12:20:36;;;;;;;12.43;10.60;;;11.10;99.90;;;;;;5051813;28;20385;-72
2023/02/03 12:23:41;;;;;;;13.23;11.90;;;11.10;99.90;;;;;;5072378;28;20441;-72
2023/02/03 12:26:21;;;;;;;15.30;12.57;;;11.10;99.90;;;;;;5072464;28;20404;-72
2023/02/03 12:29:08;;;;;;;12.87;11.57;;;11.10;99.90;;;;;;5071265;28;20459;-73
2023/02/03 12:31:56;;;;;;;16.53;12.93;;;11.10;99.90;;;;;;5070365;28;20462;-73
2023/02/03 12:35:03;;;;;;;15.60;13.17;;;11.20;99.90;;;;;;5072057;28;20490;-73
2023/02/03 12:38:11;;;;;;;13.97;12.57;;;11.20;99.90;;;;;;5054644;28;20425;-73
2023/02/03 12:40:57;;;;;;;14.57;12.90;;;11.30;99.90;;;;;;5045358;28;20828;-73
2023/02/03 12:43:36;;;;;;;13.43;12.23;;;11.20;99.90;;;;;;5033189;28;20472;-72
2023/02/03 12:46:25;;;;;;;13.77;12.37;;;11.30;99.90;;;;;;5015397;28;20507;-73
2023/02/03 12:49:12;;;;;;;16.10;12.33;;;11.30;99.90;;;;;;5032312;28;20444;-73
2023/02/03 12:51:41;;;;;;;13.63;12.30;;;11.30;99.90;;;;;;5034187;28;20396;-72
2023/02/03 12:54:35;;;;;;;16.57;12.00;;;11.40;99.90;;;;;;5052748;28;20416;-73
2023/02/03 12:57:26;;;;;;;15.27;12.10;;;11.40;99.90;;;;;;5052834;28;20458;-73